sensor_id;sensor_type;location;lat;lon;timestamp;pressure;altitude;pressure_sealevel;temperature;humidity
19457;BME280;9867;48.094;11.478;2023-01-30T00:01:40;95724.69;;;-3.03;100.00
19457;BME280;9867;48.094;11.478;2023-01-30T00:04:09;95727.56;;;-3.22;100.00
19457;BME280;9867;48.094;11.478;2023-01-30T00:06:37;95727.38;;;-3.31;100.00
19457;BME280;9867;48.094;11.478;2023-01-30T00:09:03;95720.53;;;-3.29;100.00
19457;BME280;9867;48.094;11.478;2023-01-30T00:11:30;95723.44;;;-3.35;100.00
19457;BME280;9867;48.094;11.478;2023-01-30T00:13:58;95711.81;;;-3.36;100.00
19457;BME280;9867;48.094;11.478;2023-01-30T00:16:25;95704.91;;;-3.33;100.00
19457;BME280;9867;48.094;11.478;2023-01-30T00:18:52;95710.09;;;-3.36;100.00
19457;BME280;9867;48.094;11.478;2023-01-30T00:21:19;95699.66;;;-3.42;100.00
19457;BME280;9867;48.094;11.478;2023-01-30T00:23:45;95701.75;;;-3.49;100.00
19457;BME280;9867;48.094;11.478;2023-01-30T00:26:12;95707.16;;;-3.55;100.00
19457;BME280;9867;48.094;11.478;2023-01-30T00:28:39;95693.31;;;-3.61;100.00
19457;BME280;9867;48.094;11.478;2023-01-30T00:31:06;95702.25;;;-3.57;100.00
19457;BME280;9867;48.094;11.478;2023-01-30T00:33:32;95690.78;;;-3.61;100.00
19457;BME280;9867;48.094;11.478;2023-01-30T00:36:02;95688.47;;;-3.64;100.00
19457;BME280;9867;48.094;11.478;2023-01-30T00:38:28;95682.78;;;-3.53;100.00
19457;BME280;9867;48.094;11.478;2023-01-30T00:40:55;95688.91;;;-3.45;100.00
19457;BME280;9867;48.094;11.478;2023-01-30T00:43:21;95681.28;;;-3.56;100.00
19457;BME280;9867;48.094;11.478;2023-01-30T00:46:11;95674.84;;;-3.60;100.00
19457;BME280;9867;48.094;11.478;2023-01-30T00:48:58;95668.63;;;-3.67;100.00
19457;BME280;9867;48.094;11.478;2023-01-30T00:51:25;95672.53;;;-3.63;100.00
19457;BME280;9867;48.094;11.478;2023-01-30T00:53:52;95669.41;;;-3.66;100.00
19457;BME280;9867;48.094;11.478;2023-01-30T00:56:19;95661.63;;;-3.62;100.00
19457;BME280;9867;48.094;11.478;2023-01-30T00:58:45;95649.50;;;-3.55;100.00
19457;BME280;9867;48.094;11.478;2023-01-30T01:01:12;95649.78;;;-3.47;100.00
19457;BME280;9867;48.094;11.478;2023-01-30T01:03:39;95656.22;;;-3.56;100.00
19457;BME280;9867;48.094;11.478;2023-01-30T01:06:06;95642.28;;;-3.60;100.00
19457;BME280;9867;48.094;11.478;2023-01-30T01:08:33;95641.97;;;-3.55;100.00
19457;BME280;9867;48.094;11.478;2023-01-30T01:11:00;95642.06;;;-3.57;100.00
19457;BME280;9867;48.094;11.478;2023-01-30T01:13:27;95636.44;;;-3.48;100.00
19457;BME280;9867;48.094;11.478;2023-01-30T01:15:53;95623.31;;;-3.64;100.00
19457;BME280;9867;48.094;11.478;2023-01-30T01:18:20;95636.53;;;-3.62;100.00
19457;BME280;9867;48.094;11.478;2023-01-30T01:20:46;95614.69;;;-3.60;100.00
19457;BME280;9867;48.094;11.478;2023-01-30T01:23:13;95622.59;;;-3.66;100.00
19457;BME280;9867;48.094;11.478;2023-01-30T01:25:40;95626.00;;;-3.54;100.00
19457;BME280;9867;48.094;11.478;2023-01-30T01:28:07;95623.31;;;-3.51;100.00
19457;BME280;9867;48.094;11.478;2023-01-30T01:30:33;95624.34;;;-3.41;100.00
19457;BME280;9867;48.094;11.478;2023-01-30T01:33:00;95631.53;;;-3.49;100.00
19457;BME280;9867;48.094;11.478;2023-01-30T01:35:26;95632.75;;;-3.29;100.00
19457;BME280;9867;48.094;11.478;2023-01-30T01:37:53;95619.72;;;-3.22;100.00
19457;BME280;9867;48.094;11.478;2023-01-30T01:40:20;95626.94;;;-3.17;100.00
19457;BME280;9867;48.094;11.478;2023-01-30T01:43:14;95622.34;;;-3.11;100.00
19457;BME280;9867;48.094;11.478;2023-01-30T01:45:44;95613.28;;;-3.00;100.00
19457;BME280;9867;48.094;11.478;2023-01-30T01:48:15;95610.38;;;-3.07;100.00
19457;BME280;9867;48.094;11.478;2023-01-30T01:50:46;95604.44;;;-3.06;100.00
19457;BME280;9867;48.094;11.478;2023-01-30T01:53:16;95595.09;;;-3.04;100.00
19457;BME280;9867;48.094;11.478;2023-01-30T01:55:45;95589.13;;;-3.14;100.00
19457;BME280;9867;48.094;11.478;2023-01-30T01:58:15;95596.09;;;-2.94;100.00
19457;BME280;9867;48.094;11.478;2023-01-30T02:00:46;95597.88;;;-2.83;100.00
19457;BME280;9867;48.094;11.478;2023-01-30T02:03:16;95600.47;;;-3.08;100.00
19457;BME280;9867;48.094;11.478;2023-01-30T02:05:46;95604.56;;;-3.07;100.00
19457;BME280;9867;48.094;11.478;2023-01-30T02:08:18;95615.78;;;-3.00;100.00
19457;BME280;9867;48.094;11.478;2023-01-30T02:10:55;95613.47;;;-3.03;100.00
19457;BME280;9867;48.094;11.478;2023-01-30T02:13:24;95618.69;;;-3.06;100.00
19457;BME280;9867;48.094;11.478;2023-01-30T02:15:54;95607.47;;;-3.01;100.00
19457;BME280;9867;48.094;11.478;2023-01-30T02:18:20;95619.09;;;-3.00;100.00
19457;BME280;9867;48.094;11.478;2023-01-30T02:24:20;95616.59;;;-3.00;100.00
19457;BME280;9867;48.094;11.478;2023-01-30T02:27:16;95620.03;;;-3.14;100.00
19457;BME280;9867;48.094;11.478;2023-01-30T02:30:00;95635.38;;;-3.31;100.00
19457;BME280;9867;48.094;11.478;2023-01-30T02:32:38;95634.06;;;-3.36;100.00
19457;BME280;9867;48.094;11.478;2023-01-30T02:35:15;95616.28;;;-3.46;100.00
19457;BME280;9867;48.094;11.478;2023-01-30T02:37:49;95620.53;;;-3.21;100.00
19457;BME280;9867;48.094;11.478;2023-01-30T02:40:32;95608.66;;;-3.06;100.00
19457;BME280;9867;48.094;11.478;2023-01-30T02:43:09;95624.53;;;-3.19;100.00
19457;BME280;9867;48.094;11.478;2023-01-30T02:45:42;95639.97;;;-3.25;100.00
19457;BME280;9867;48.094;11.478;2023-01-30T02:48:16;95621.63;;;-3.38;100.00
19457;BME280;9867;48.094;11.478;2023-01-30T02:50:51;95633.03;;;-3.47;100.00
19457;BME280;9867;48.094;11.478;2023-01-30T02:53:19;95646.28;;;-3.45;100.00
19457;BME280;9867;48.094;11.478;2023-01-30T02:55:46;95637.88;;;-3.44;100.00
19457;BME280;9867;48.094;11.478;2023-01-30T02:58:13;95640.16;;;-3.28;100.00
19457;BME280;9867;48.094;11.478;2023-01-30T03:01:01;95638.16;;;-3.48;100.00
19457;BME280;9867;48.094;11.478;2023-01-30T03:03:47;95650.59;;;-3.47;100.00
19457;BME280;9867;48.094;11.478;2023-01-30T03:06:33;95652.00;;;-3.30;100.00
19457;BME280;9867;48.094;11.478;2023-01-30T03:09:12;95657.81;;;-3.29;100.00
19457;BME280;9867;48.094;11.478;2023-01-30T03:11:46;95663.16;;;-3.21;100.00
19457;BME280;9867;48.094;11.478;2023-01-30T03:14:20;95660.84;;;-3.37;100.00
19457;BME280;9867;48.094;11.478;2023-01-30T03:16:52;95661.03;;;-3.27;100.00
19457;BME280;9867;48.094;11.478;2023-01-30T03:19:21;95653.22;;;-3.23;100.00
19457;BME280;9867;48.094;11.478;2023-01-30T03:21:47;95651.91;;;-3.28;100.00
19457;BME280;9867;48.094;11.478;2023-01-30T03:24:14;95640.69;;;-3.35;100.00
19457;BME280;9867;48.094;11.478;2023-01-30T03:26:44;95626.94;;;-3.42;100.00
19457;BME280;9867;48.094;11.478;2023-01-30T03:29:12;95616.41;;;-3.48;100.00
19457;BME280;9867;48.094;11.478;2023-01-30T03:31:39;95611.38;;;-3.48;100.00
19457;BME280;9867;48.094;11.478;2023-01-30T03:34:06;95612.28;;;-3.49;100.00
19457;BME280;9867;48.094;11.478;2023-01-30T03:36:33;95617.19;;;-3.47;100.00
19457;BME280;9867;48.094;11.478;2023-01-30T03:39:00;95616.41;;;-3.48;100.00
19457;BME280;9867;48.094;11.478;2023-01-30T03:41:27;95615.91;;;-3.40;100.00
19457;BME280;9867;48.094;11.478;2023-01-30T03:43:53;95606.16;;;-3.19;100.00
19457;BME280;9867;48.094;11.478;2023-01-30T03:46:20;95611.28;;;-3.21;100.00
19457;BME280;9867;48.094;11.478;2023-01-30T03:48:47;95609.78;;;-3.23;100.00
19457;BME280;9867;48.094;11.478;2023-01-30T03:51:13;95596.53;;;-3.25;100.00
19457;BME280;9867;48.094;11.478;2023-01-30T03:53:41;95599.84;;;-3.25;100.00
19457;BME280;9867;48.094;11.478;2023-01-30T03:56:07;95593.13;;;-3.12;100.00
19457;BME280;9867;48.094;11.478;2023-01-30T03:58:35;95594.44;;;-3.19;100.00
19457;BME280;9867;48.094;11.478;2023-01-30T04:01:14;95599.16;;;-3.14;100.00
19457;BME280;9867;48.094;11.478;2023-01-30T04:03:40;95600.44;;;-3.21;100.00
19457;BME280;9867;48.094;11.478;2023-01-30T04:06:07;95590.53;;;-3.10;100.00
19457;BME280;9867;48.094;11.478;2023-01-30T04:08:33;95582.75;;;-2.94;100.00
19457;BME280;9867;48.094;11.478;2023-01-30T04:11:00;95587.47;;;-2.90;100.00
19457;BME280;9867;48.094;11.478;2023-01-30T04:13:27;95587.34;;;-2.76;100.00
19457;BME280;9867;48.094;11.478;2023-01-30T04:16:15;95609.78;;;-3.23;100.00
19457;BME280;9867;48.094;11.478;2023-01-30T04:19:00;95625.53;;;-3.08;100.00
19457;BME280;9867;48.094;11.478;2023-01-30T04:21:30;95616.19;;;-3.19;100.00
19457;BME280;9867;48.094;11.478;2023-01-30T04:23:57;95609.88;;;-3.12;100.00
19457;BME280;9867;48.094;11.478;2023-01-30T04:26:24;95611.88;;;-3.30;100.00
19457;BME280;9867;48.094;11.478;2023-01-30T04:28:50;95611.00;;;-3.16;100.00
19457;BME280;9867;48.094;11.478;2023-01-30T04:31:17;95590.78;;;-3.02;100.00
19457;BME280;9867;48.094;11.478;2023-01-30T04:34:02;95602.16;;;-3.09;100.00
19457;BME280;9867;48.094;11.478;2023-01-30T04:36:29;95609.56;;;-2.95;100.00
19457;BME280;9867;48.094;11.478;2023-01-30T04:38:56;95619.38;;;-2.79;100.00
19457;BME280;9867;48.094;11.478;2023-01-30T04:41:25;95609.31;;;-2.66;100.00
19457;BME280;9867;48.094;11.478;2023-01-30T04:43:55;95609.63;;;-2.71;100.00
19457;BME280;9867;48.094;11.478;2023-01-30T04:46:28;95594.06;;;-2.76;100.00
19457;BME280;9867;48.094;11.478;2023-01-30T04:48:55;95580.28;;;-2.70;100.00
19457;BME280;9867;48.094;11.478;2023-01-30T04:51:22;95557.09;;;-2.61;100.00
19457;BME280;9867;48.094;11.478;2023-01-30T04:53:49;95554.34;;;-2.58;100.00
19457;BME280;9867;48.094;11.478;2023-01-30T04:56:16;95546.69;;;-2.57;100.00
19457;BME280;9867;48.094;11.478;2023-01-30T04:58:44;95549.66;;;-2.63;100.00
19457;BME280;9867;48.094;11.478;2023-01-30T05:01:13;95559.59;;;-2.61;100.00
19457;BME280;9867;48.094;11.478;2023-01-30T05:03:40;95566.78;;;-2.57;100.00
19457;BME280;9867;48.094;11.478;2023-01-30T05:06:07;95565.28;;;-2.59;100.00
19457;BME280;9867;48.094;11.478;2023-01-30T05:08:33;95566.75;;;-2.68;100.00
19457;BME280;9867;48.094;11.478;2023-01-30T05:10:59;95566.09;;;-2.59;100.00
19457;BME280;9867;48.094;11.478;2023-01-30T05:13:26;95560.75;;;-2.54;100.00
19457;BME280;9867;48.094;11.478;2023-01-30T05:15:53;95561.66;;;-2.55;100.00
19457;BME280;9867;48.094;11.478;2023-01-30T05:18:19;95540.84;;;-2.45;100.00
19457;BME280;9867;48.094;11.478;2023-01-30T05:20:46;95523.47;;;-2.48;100.00
19457;BME280;9867;48.094;11.478;2023-01-30T05:23:13;95535.03;;;-2.58;100.00
19457;BME280;9867;48.094;11.478;2023-01-30T05:25:44;95527.63;;;-2.59;100.00
19457;BME280;9867;48.094;11.478;2023-01-30T05:28:10;95521.75;;;-2.71;100.00
19457;BME280;9867;48.094;11.478;2023-01-30T05:30:37;95539.13;;;-2.68;100.00
19457;BME280;9867;48.094;11.478;2023-01-30T05:33:04;95531.41;;;-2.54;100.00
19457;BME280;9867;48.094;11.478;2023-01-30T05:35:30;95530.81;;;-2.57;100.00
19457;BME280;9867;48.094;11.478;2023-01-30T05:37:56;95539.84;;;-2.55;100.00
19457;BME280;9867;48.094;11.478;2023-01-30T05:40:25;95538.81;;;-2.63;100.00
19457;BME280;9867;48.094;11.478;2023-01-30T05:42:53;95539.16;;;-2.81;100.00
19457;BME280;9867;48.094;11.478;2023-01-30T05:45:19;95541.53;;;-2.66;100.00
19457;BME280;9867;48.094;11.478;2023-01-30T05:47:49;95540.97;;;-2.59;100.00
19457;BME280;9867;48.094;11.478;2023-01-30T05:50:17;95544.53;;;-2.61;100.00
19457;BME280;9867;48.094;11.478;2023-01-30T05:52:43;95541.25;;;-2.51;100.00
19457;BME280;9867;48.094;11.478;2023-01-30T05:55:10;95538.59;;;-2.36;100.00
19457;BME280;9867;48.094;11.478;2023-01-30T05:57:36;95518.13;;;-2.43;100.00
19457;BME280;9867;48.094;11.478;2023-01-30T06:00:03;95519.72;;;-2.42;100.00
19457;BME280;9867;48.094;11.478;2023-01-30T06:02:38;95513.63;;;-2.51;100.00
19457;BME280;9867;48.094;11.478;2023-01-30T06:05:05;95525.88;;;-2.46;100.00
19457;BME280;9867;48.094;11.478;2023-01-30T06:07:32;95530.09;;;-2.70;100.00
19457;BME280;9867;48.094;11.478;2023-01-30T06:09:59;95535.31;;;-2.73;100.00
19457;BME280;9867;48.094;11.478;2023-01-30T06:12:25;95522.06;;;-2.52;100.00
19457;BME280;9867;48.094;11.478;2023-01-30T06:14:51;95531.59;;;-2.44;100.00
19457;BME280;9867;48.094;11.478;2023-01-30T06:17:18;95525.19;;;-2.48;100.00
19457;BME280;9867;48.094;11.478;2023-01-30T06:19:44;95523.63;;;-2.38;100.00
19457;BME280;9867;48.094;11.478;2023-01-30T06:22:11;95523.56;;;-2.25;100.00
19457;BME280;9867;48.094;11.478;2023-01-30T06:24:38;95528.75;;;-2.16;100.00
19457;BME280;9867;48.094;11.478;2023-01-30T06:27:04;95525.53;;;-2.18;100.00
19457;BME280;9867;48.094;11.478;2023-01-30T06:29:31;95516.72;;;-2.12;100.00
19457;BME280;9867;48.094;11.478;2023-01-30T06:31:57;95520.19;;;-2.13;100.00
19457;BME280;9867;48.094;11.478;2023-01-30T06:34:23;95523.94;;;-2.08;100.00
19457;BME280;9867;48.094;11.478;2023-01-30T06:36:50;95524.63;;;-2.06;100.00
19457;BME280;9867;48.094;11.478;2023-01-30T06:39:17;95521.13;;;-2.38;100.00
19457;BME280;9867;48.094;11.478;2023-01-30T06:41:44;95513.34;;;-2.35;100.00
19457;BME280;9867;48.094;11.478;2023-01-30T06:44:10;95503.19;;;-2.33;100.00
19457;BME280;9867;48.094;11.478;2023-01-30T06:46:37;95508.00;;;-2.30;100.00
19457;BME280;9867;48.094;11.478;2023-01-30T06:49:03;95507.31;;;-2.32;100.00
19457;BME280;9867;48.094;11.478;2023-01-30T06:51:29;95512.50;;;-2.47;100.00
19457;BME280;9867;48.094;11.478;2023-01-30T06:53:57;95527.78;;;-2.50;100.00
19457;BME280;9867;48.094;11.478;2023-01-30T06:56:23;95534.63;;;-2.52;100.00
19457;BME280;9867;48.094;11.478;2023-01-30T06:58:50;95546.13;;;-2.36;100.00
19457;BME280;9867;48.094;11.478;2023-01-30T07:01:17;95556.03;;;-2.35;100.00
19457;BME280;9867;48.094;11.478;2023-01-30T07:03:44;95546.44;;;-2.17;100.00
19457;BME280;9867;48.094;11.478;2023-01-30T07:06:10;95539.00;;;-2.19;100.00
19457;BME280;9867;48.094;11.478;2023-01-30T07:08:37;95545.31;;;-2.13;100.00
19457;BME280;9867;48.094;11.478;2023-01-30T07:11:03;95554.31;;;-2.11;100.00
19457;BME280;9867;48.094;11.478;2023-01-30T07:13:30;95539.63;;;-2.04;100.00
19457;BME280;9867;48.094;11.478;2023-01-30T07:15:57;95548.81;;;-1.92;100.00
19457;BME280;9867;48.094;11.478;2023-01-30T07:18:23;95541.16;;;-1.90;100.00
19457;BME280;9867;48.094;11.478;2023-01-30T07:20:50;95547.09;;;-1.80;100.00
19457;BME280;9867;48.094;11.478;2023-01-30T07:23:16;95561.44;;;-1.69;100.00
19457;BME280;9867;48.094;11.478;2023-01-30T07:25:43;95558.81;;;-1.68;100.00
19457;BME280;9867;48.094;11.478;2023-01-30T07:28:09;95557.31;;;-1.59;100.00
19457;BME280;9867;48.094;11.478;2023-01-30T07:30:36;95564.28;;;-1.63;100.00
19457;BME280;9867;48.094;11.478;2023-01-30T07:33:04;95569.34;;;-1.52;100.00
19457;BME280;9867;48.094;11.478;2023-01-30T07:35:33;95572.53;;;-1.50;100.00
19457;BME280;9867;48.094;11.478;2023-01-30T07:38:00;95560.31;;;-1.43;100.00
19457;BME280;9867;48.094;11.478;2023-01-30T07:40:26;95560.31;;;-1.43;100.00
19457;BME280;9867;48.094;11.478;2023-01-30T07:42:58;95555.84;;;-1.40;100.00
19457;BME280;9867;48.094;11.478;2023-01-30T07:45:24;95559.28;;;-1.29;100.00
19457;BME280;9867;48.094;11.478;2023-01-30T07:47:54;95556.22;;;-1.22;100.00
19457;BME280;9867;48.094;11.478;2023-01-30T07:50:25;95550.00;;;-1.18;100.00
19457;BME280;9867;48.094;11.478;2023-01-30T07:52:51;95550.25;;;-1.10;100.00
19457;BME280;9867;48.094;11.478;2023-01-30T07:55:18;95544.53;;;-1.00;100.00
19457;BME280;9867;48.094;11.478;2023-01-30T07:57:45;95534.78;;;-0.94;100.00
19457;BME280;9867;48.094;11.478;2023-01-30T08:00:12;95528.75;;;-0.16;100.00
19457;BME280;9867;48.094;11.478;2023-01-30T08:02:39;95512.19;;;-0.30;100.00
19457;BME280;9867;48.094;11.478;2023-01-30T08:05:06;95519.81;;;-0.20;100.00
19457;BME280;9867;48.094;11.478;2023-01-30T08:07:33;95528.50;;;-0.13;100.00
19457;BME280;9867;48.094;11.478;2023-01-30T08:09:59;95516.41;;;-0.51;100.00
19457;BME280;9867;48.094;11.478;2023-01-30T08:12:26;95516.88;;;-0.57;100.00
19457;BME280;9867;48.094;11.478;2023-01-30T08:14:52;95496.38;;;-0.64;100.00
19457;BME280;9867;48.094;11.478;2023-01-30T08:17:19;95523.50;;;-0.56;100.00
19457;BME280;9867;48.094;11.478;2023-01-30T08:19:45;95517.88;;;-0.49;100.00
19457;BME280;9867;48.094;11.478;2023-01-30T08:22:12;95538.22;;;-0.41;100.00
19457;BME280;9867;48.094;11.478;2023-01-30T08:24:39;95523.09;;;-0.29;100.00
19457;BME280;9867;48.094;11.478;2023-01-30T08:27:06;95518.59;;;-0.26;100.00
19457;BME280;9867;48.094;11.478;2023-01-30T08:29:32;95520.81;;;-0.32;100.00
19457;BME280;9867;48.094;11.478;2023-01-30T08:31:59;95509.22;;;-0.24;100.00
19457;BME280;9867;48.094;11.478;2023-01-30T08:34:26;95513.81;;;-0.29;100.00
19457;BME280;9867;48.094;11.478;2023-01-30T08:36:53;95506.81;;;-0.25;100.00
19457;BME280;9867;48.094;11.478;2023-01-30T08:39:19;95517.53;;;-0.23;100.00
19457;BME280;9867;48.094;11.478;2023-01-30T08:41:46;95497.00;;;-0.19;100.00
19457;BME280;9867;48.094;11.478;2023-01-30T08:44:13;95491.63;;;-0.14;100.00
19457;BME280;9867;48.094;11.478;2023-01-30T08:46:39;95503.72;;;-0.08;100.00
19457;BME280;9867;48.094;11.478;2023-01-30T08:49:06;95492.78;;;0.03;100.00
19457;BME280;9867;48.094;11.478;2023-01-30T08:51:32;95501.03;;;0.05;100.00
19457;BME280;9867;48.094;11.478;2023-01-30T08:53:59;95504.28;;;0.16;100.00
19457;BME280;9867;48.094;11.478;2023-01-30T08:56:25;95497.78;;;0.14;100.00
19457;BME280;9867;48.094;11.478;2023-01-30T08:58:52;95500.97;;;0.16;100.00
19457;BME280;9867;48.094;11.478;2023-01-30T09:01:19;95472.84;;;0.20;100.00
19457;BME280;9867;48.094;11.478;2023-01-30T09:03:45;95476.63;;;0.36;100.00
19457;BME280;9867;48.094;11.478;2023-01-30T09:06:11;95470.94;;;0.74;100.00
19457;BME280;9867;48.094;11.478;2023-01-30T09:08:38;95458.66;;;0.99;100.00
19457;BME280;9867;48.094;11.478;2023-01-30T09:11:05;95477.47;;;0.76;100.00
19457;BME280;9867;48.094;11.478;2023-01-30T09:13:33;95484.03;;;0.88;100.00
19457;BME280;9867;48.094;11.478;2023-01-30T09:16:01;95499.31;;;0.56;100.00
19457;BME280;9867;48.094;11.478;2023-01-30T09:18:29;95483.75;;;0.51;100.00
19457;BME280;9867;48.094;11.478;2023-01-30T09:21:01;95484.34;;;0.64;100.00
19457;BME280;9867;48.094;11.478;2023-01-30T09:23:28;95466.13;;;0.61;100.00
19457;BME280;9867;48.094;11.478;2023-01-30T09:25:54;95477.03;;;1.11;100.00
19457;BME280;9867;48.094;11.478;2023-01-30T09:28:21;95476.25;;;1.30;100.00
19457;BME280;9867;48.094;11.478;2023-01-30T09:30:47;95461.91;;;1.79;100.00
19457;BME280;9867;48.094;11.478;2023-01-30T09:33:14;95477.75;;;1.52;100.00
19457;BME280;9867;48.094;11.478;2023-01-30T09:35:46;95487.31;;;1.39;100.00
19457;BME280;9867;48.094;11.478;2023-01-30T09:38:12;95495.19;;;1.55;100.00
19457;BME280;9867;48.094;11.478;2023-01-30T09:40:45;95480.66;;;1.28;100.00
19457;BME280;9867;48.094;11.478;2023-01-30T09:46:17;95474.28;;;1.72;100.00
19457;BME280;9867;48.094;11.478;2023-01-30T09:48:55;95456.28;;;1.94;100.00
19457;BME280;9867;48.094;11.478;2023-01-30T09:51:42;95458.31;;;1.81;100.00
19457;BME280;9867;48.094;11.478;2023-01-30T09:54:24;95436.34;;;2.65;100.00
19457;BME280;9867;48.094;11.478;2023-01-30T09:56:57;95439.78;;;2.47;100.00
19457;BME280;9867;48.094;11.478;2023-01-30T09:59:30;95445.72;;;2.18;100.00
19457;BME280;9867;48.094;11.478;2023-01-30T10:02:12;95434.13;;;2.25;100.00
19457;BME280;9867;48.094;11.478;2023-01-30T10:04:45;95436.28;;;2.57;100.00
19457;BME280;9867;48.094;11.478;2023-01-30T10:07:34;95429.91;;;2.53;100.00
19457;BME280;9867;48.094;11.478;2023-01-30T10:10:12;95431.88;;;2.13;100.00
19457;BME280;9867;48.094;11.478;2023-01-30T10:12:48;95451.88;;;2.06;100.00
19457;BME280;9867;48.094;11.478;2023-01-30T10:15:26;95464.38;;;2.17;100.00
19457;BME280;9867;48.094;11.478;2023-01-30T10:18:06;95450.56;;;2.49;100.00
19457;BME280;9867;48.094;11.478;2023-01-30T10:20:42;95421.53;;;2.70;100.00
19457;BME280;9867;48.094;11.478;2023-01-30T10:23:30;95417.56;;;2.68;100.00
19457;BME280;9867;48.094;11.478;2023-01-30T10:26:03;95409.16;;;2.40;100.00
19457;BME280;9867;48.094;11.478;2023-01-30T10:28:32;95404.13;;;2.85;100.00
19457;BME280;9867;48.094;11.478;2023-01-30T10:31:03;95394.94;;;2.84;100.00
19457;BME280;9867;48.094;11.478;2023-01-30T10:33:33;95412.91;;;2.91;100.00
19457;BME280;9867;48.094;11.478;2023-01-30T10:36:04;95385.72;;;3.28;100.00
19457;BME280;9867;48.094;11.478;2023-01-30T10:38:36;95362.28;;;3.52;100.00
19457;BME280;9867;48.094;11.478;2023-01-30T10:41:12;95384.31;;;2.81;100.00
19457;BME280;9867;48.094;11.478;2023-01-30T10:43:42;95373.53;;;2.24;100.00
19457;BME280;9867;48.094;11.478;2023-01-30T10:46:20;95377.09;;;2.31;100.00
19457;BME280;9867;48.094;11.478;2023-01-30T10:48:55;95393.38;;;2.56;100.00
19457;BME280;9867;48.094;11.478;2023-01-30T10:51:30;95383.38;;;2.82;100.00
19457;BME280;9867;48.094;11.478;2023-01-30T10:54:02;95378.03;;;3.02;100.00
19457;BME280;9867;48.094;11.478;2023-01-30T10:56:36;95365.91;;;3.50;100.00
19457;BME280;9867;48.094;11.478;2023-01-30T10:59:20;95364.47;;;3.47;100.00
19457;BME280;9867;48.094;11.478;2023-01-30T11:01:54;95386.69;;;3.35;100.00
19457;BME280;9867;48.094;11.478;2023-01-30T11:04:28;95369.47;;;3.39;100.00
19457;BME280;9867;48.094;11.478;2023-01-30T11:06:56;95387.50;;;3.36;100.00
19457;BME280;9867;48.094;11.478;2023-01-30T11:09:37;95399.94;;;3.65;100.00
19457;BME280;9867;48.094;11.478;2023-01-30T11:12:03;95378.09;;;3.46;100.00
19457;BME280;9867;48.094;11.478;2023-01-30T11:14:48;95363.72;;;3.81;100.00
19457;BME280;9867;48.094;11.478;2023-01-30T11:17:15;95340.22;;;4.04;100.00
19457;BME280;9867;48.094;11.478;2023-01-30T11:19:43;95335.72;;;3.90;100.00
19457;BME280;9867;48.094;11.478;2023-01-30T11:22:13;95356.91;;;3.81;100.00
19457;BME280;9867;48.094;11.478;2023-01-30T11:24:41;95323.91;;;3.47;100.00
19457;BME280;9867;48.094;11.478;2023-01-30T11:27:09;95325.13;;;3.43;100.00
19457;BME280;9867;48.094;11.478;2023-01-30T11:29:37;95317.28;;;3.28;100.00
19457;BME280;9867;48.094;11.478;2023-01-30T11:32:11;95301.84;;;3.22;100.00
19457;BME280;9867;48.094;11.478;2023-01-30T11:34:40;95301.47;;;3.17;100.00
19457;BME280;9867;48.094;11.478;2023-01-30T11:37:13;95290.78;;;3.49;100.00
19457;BME280;9867;48.094;11.478;2023-01-30T11:39:47;95292.97;;;3.69;100.00
19457;BME280;9867;48.094;11.478;2023-01-30T11:42:18;95289.28;;;3.64;100.00
19457;BME280;9867;48.094;11.478;2023-01-30T11:44:45;95287.63;;;3.55;100.00
19457;BME280;9867;48.094;11.478;2023-01-30T11:47:18;95289.19;;;3.48;100.00
19457;BME280;9867;48.094;11.478;2023-01-30T11:49:48;95295.41;;;3.53;100.00
19457;BME280;9867;48.094;11.478;2023-01-30T11:52:32;95275.72;;;3.81;100.00
19457;BME280;9867;48.094;11.478;2023-01-30T11:55:03;95273.19;;;4.15;100.00
19457;BME280;9867;48.094;11.478;2023-01-30T11:57:39;95284.19;;;3.90;100.00
19457;BME280;9867;48.094;11.478;2023-01-30T12:00:13;95260.94;;;3.68;100.00
19457;BME280;9867;48.094;11.478;2023-01-30T12:02:44;95303.09;;;3.43;100.00
19457;BME280;9867;48.094;11.478;2023-01-30T12:05:21;95278.13;;;3.31;100.00
19457;BME280;9867;48.094;11.478;2023-01-30T12:07:51;95280.56;;;3.15;100.00
19457;BME280;9867;48.094;11.478;2023-01-30T12:10:27;95265.94;;;3.08;100.00
19457;BME280;9867;48.094;11.478;2023-01-30T12:12:55;95273.06;;;3.05;100.00
19457;BME280;9867;48.094;11.478;2023-01-30T12:15:26;95256.13;;;3.05;100.00
19457;BME280;9867;48.094;11.478;2023-01-30T12:17:58;95258.78;;;3.04;100.00
19457;BME280;9867;48.094;11.478;2023-01-30T12:20:40;95274.44;;;2.99;100.00
19457;BME280;9867;48.094;11.478;2023-01-30T12:23:14;95261.41;;;2.94;100.00
19457;BME280;9867;48.094;11.478;2023-01-30T12:25:50;95246.44;;;2.83;100.00
19457;BME280;9867;48.094;11.478;2023-01-30T12:28:23;95262.41;;;2.84;100.00
19457;BME280;9867;48.094;11.478;2023-01-30T12:30:54;95253.38;;;2.81;100.00
19457;BME280;9867;48.094;11.478;2023-01-30T12:33:22;95245.94;;;2.80;100.00
19457;BME280;9867;48.094;11.478;2023-01-30T12:36:03;95232.00;;;2.84;100.00
19457;BME280;9867;48.094;11.478;2023-01-30T12:38:46;95229.66;;;2.82;100.00
19457;BME280;9867;48.094;11.478;2023-01-30T12:41:27;95240.25;;;2.86;100.00
19457;BME280;9867;48.094;11.478;2023-01-30T12:44:14;95201.53;;;2.93;100.00
19457;BME280;9867;48.094;11.478;2023-01-30T12:46:58;95207.41;;;2.94;100.00
19457;BME280;9867;48.094;11.478;2023-01-30T12:49:46;95195.09;;;2.99;100.00
19457;BME280;9867;48.094;11.478;2023-01-30T12:52:46;95206.31;;;2.96;100.00
19457;BME280;9867;48.094;11.478;2023-01-30T12:55:33;95199.50;;;2.97;100.00
19457;BME280;9867;48.094;11.478;2023-01-30T12:58:11;95204.72;;;2.95;100.00
19457;BME280;9867;48.094;11.478;2023-01-30T13:00:50;95205.72;;;3.02;100.00
19457;BME280;9867;48.094;11.478;2023-01-30T13:03:29;95194.28;;;2.98;100.00
19457;BME280;9867;48.094;11.478;2023-01-30T13:06:10;95199.00;;;3.19;100.00
19457;BME280;9867;48.094;11.478;2023-01-30T13:08:56;95221.09;;;3.09;100.00
19457;BME280;9867;48.094;11.478;2023-01-30T13:11:37;95255.97;;;3.07;100.00
19457;BME280;9867;48.094;11.478;2023-01-30T13:14:13;95207.31;;;3.03;100.00
19457;BME280;9867;48.094;11.478;2023-01-30T13:16:52;95211.78;;;3.09;100.00